This is the latest recevied weather packets stored in our database for station/object PA3DZX-13. If no packets are shown the sender has not sent any weather packets the latest 10 day(s).
| Time | Temp. | Humidity | Pressure | Rain* | Wind** | Luminosity | Snow |
|---|---|---|---|---|---|---|---|
| 1788206840 | 15.56° C | 85% | 1014.1 hPa | 0 mm | - | - | - |
| 1788205939 | 15.56° C | 86% | 1013.9 hPa | 0 mm | - | - | - |
| 1788205040 | 15.56° C | 84% | 1013.8 hPa | 0 mm | - | - | - |
| 1788204139 | 15.56° C | 85% | 1013.7 hPa | 0 mm | - | - | - |
| 1788203239 | 16.67° C | 75% | 1013.2 hPa | 0.25 mm | - | - | - |
| 1788202338 | 17.78° C | 67% | 1012.7 hPa | 0 mm | - | - | - |
| 1788201438 | 17.78° C | 68% | 1012.6 hPa | 0 mm | - | - | - |
| 1788200537 | 16.67° C | 70% | 1012.2 hPa | 0 mm | - | - | - |
| 1788199638 | 17.78° C | 68% | 1012 hPa | 0 mm | - | - | - |
| 1788198736 | 17.78° C | 68% | 1012 hPa | 0 mm | - | - | - |
| 1788197836 | 17.78° C | 65% | 1011.8 hPa | 0 mm | - | - | - |
| 1788196941 | 17.78° C | 67% | 1011.7 hPa | 0 mm | - | - | - |
| 1788196036 | 17.78° C | 66% | 1011.4 hPa | 0 mm | - | - | - |
| 1788195134 | 17.78° C | 68% | 1011.3 hPa | 0 mm | - | - | - |
| 1788194234 | 17.78° C | 71% | 1011.1 hPa | 0 mm | - | - | - |
| 1788193334 | 17.78° C | 74% | 1011 hPa | 0 mm | - | - | - |
| 1788192434 | 17.78° C | 71% | 1010.7 hPa | 0 mm | - | - | - |
| 1788191533 | 18.89° C | 69% | 1010.6 hPa | 0 mm | - | - | - |
| 1788190633 | 18.89° C | 71% | 1010.4 hPa | 0 mm | - | - | - |
| 1788189732 | 17.78° C | 71% | 1010.5 hPa | 0 mm | - | - | - |
| 1788188832 | 17.78° C | 73% | 1010.3 hPa | 0 mm | - | - | - |
| 1788187931 | 15.56° C | 84% | 1010.1 hPa | 0 mm | - | - | - |
| 1788187031 | 15° C | 86% | 1010.1 hPa | 0 mm | - | - | - |
| 1788186130 | 15° C | 84% | 1010.2 hPa | 2.79 mm | - | - | - |
| 1788185231 | 16.67° C | 72% | 1010.3 hPa | 0 mm | - | - | - |
* Rain latest hour (hover to see other rain measurements)
** Current wind speed in m/s (hover to see current wind gust speed)